createdAt,value
2023-11-24T00:00:42.581Z,64.06
2023-11-24T00:01:52.720Z,64.40
2023-11-24T00:02:42.558Z,64.58
2023-11-24T00:03:42.589Z,64.82
2023-11-24T00:04:42.527Z,65.37
2023-11-24T00:05:42.516Z,66.32
2023-11-24T00:06:42.565Z,65.00
2023-11-24T00:07:42.505Z,64.91
2023-11-24T00:08:42.496Z,64.73
2023-11-24T00:09:42.523Z,64.01
2023-11-24T00:10:42.469Z,64.50
2023-11-24T00:11:42.461Z,64.37
2023-11-24T00:12:42.486Z,63.34
2023-11-24T00:13:42.469Z,63.41
2023-11-24T00:14:42.435Z,63.89
2023-11-24T00:15:42.486Z,62.62
2023-11-24T00:16:42.461Z,62.64
2023-11-24T00:17:42.525Z,62.89
2023-11-24T00:18:42.455Z,63.15
2023-11-24T00:19:42.397Z,61.28
2023-11-24T00:20:42.388Z,61.85
2023-11-24T00:21:42.479Z,62.68
2023-11-24T00:22:42.422Z,62.06
2023-11-24T00:23:42.376Z,61.26
2023-11-24T00:24:42.361Z,61.28
2023-11-24T00:25:42.342Z,61.64
2023-11-24T00:26:42.340Z,62.02
2023-11-24T00:27:42.376Z,60.80
2023-11-24T00:28:42.323Z,61.68
2023-11-24T00:29:42.312Z,60.63
2023-11-24T00:30:42.321Z,60.05
2023-11-24T00:31:42.309Z,60.21
2023-11-24T00:32:42.349Z,60.29
2023-11-24T00:33:42.373Z,60.55
2023-11-24T00:34:42.306Z,59.07
2023-11-24T00:35:42.319Z,59.63
2023-11-24T00:36:42.302Z,59.53
2023-11-24T00:37:42.256Z,60.01
2023-11-24T00:38:42.231Z,60.05
2023-11-24T00:39:42.282Z,59.34
2023-11-24T00:40:42.221Z,60.11
2023-11-24T00:41:42.211Z,60.07
2023-11-24T00:42:42.236Z,59.26
2023-11-24T00:43:42.178Z,60.03
2023-11-24T00:44:42.172Z,59.76
2023-11-24T00:45:42.187Z,59.48
2023-11-24T00:46:42.191Z,58.54
2023-11-24T00:47:42.161Z,59.76
2023-11-24T00:48:42.176Z,59.33
2023-11-24T00:49:42.122Z,59.80
2023-11-24T00:50:42.131Z,59.65
2023-11-24T00:51:42.110Z,59.19
2023-11-24T00:52:42.131Z,58.88
2023-11-24T00:53:42.099Z,58.40
2023-11-24T00:54:42.102Z,58.74
2023-11-24T00:55:42.095Z,58.43
2023-11-24T00:56:42.069Z,57.80
2023-11-24T00:57:42.094Z,58.18
2023-11-24T00:58:42.082Z,58.38
2023-11-24T00:59:42.046Z,57.94
2023-11-24T01:00:42.087Z,57.51
2023-11-24T01:01:42.100Z,57.53
2023-11-24T01:02:42.094Z,57.16
2023-11-24T01:03:42.102Z,57.35
2023-11-24T01:04:42.043Z,57.51
2023-11-24T01:05:41.987Z,55.96
2023-11-24T01:06:42.100Z,56.76
2023-11-24T01:07:41.968Z,57.11
2023-11-24T01:08:41.978Z,56.57
2023-11-24T01:09:41.966Z,57.02
2023-11-24T01:10:41.953Z,56.57
2023-11-24T01:11:41.935Z,55.64
2023-11-24T01:12:41.955Z,55.26
2023-11-24T01:13:41.916Z,55.75
2023-11-24T01:14:41.942Z,55.95
2023-11-24T01:15:41.936Z,55.29
2023-11-24T01:16:41.902Z,55.45
2023-11-24T01:17:41.951Z,55.78
2023-11-24T01:18:41.909Z,55.69
2023-11-24T01:19:41.871Z,55.18
2023-11-24T01:20:41.857Z,55.29
2023-11-24T01:21:41.895Z,54.68
2023-11-24T01:22:41.852Z,55.44
2023-11-24T01:23:41.842Z,55.16
2023-11-24T01:24:41.830Z,54.10
2023-11-24T01:25:41.813Z,54.83
2023-11-24T01:26:41.816Z,55.64
2023-11-24T01:27:41.997Z,53.98
2023-11-24T01:28:42.479Z,53.31
2023-11-24T01:29:41.807Z,52.88
2023-11-24T01:30:41.831Z,55.09
2023-11-24T01:31:41.791Z,52.84
2023-11-24T01:32:41.846Z,54.46
2023-11-24T01:33:41.775Z,53.51
2023-11-24T01:34:41.774Z,53.45
2023-11-24T01:35:41.756Z,54.51
2023-11-24T01:36:41.783Z,53.66
2023-11-24T01:37:41.736Z,53.82
2023-11-24T01:38:41.719Z,54.09
2023-11-24T01:39:41.727Z,53.94
2023-11-24T01:40:41.684Z,52.39
2023-11-24T01:41:41.678Z,53.27
2023-11-24T01:42:41.711Z,51.83
2023-11-24T01:43:41.667Z,51.67
2023-11-24T01:44:41.667Z,51.27
2023-11-24T01:45:41.709Z,52.14
2023-11-24T01:46:41.697Z,52.28
2023-11-24T01:47:41.668Z,52.61
2023-11-24T01:48:41.655Z,51.51
2023-11-24T01:49:41.607Z,52.89
2023-11-24T01:50:41.609Z,51.77
2023-11-24T01:51:41.620Z,50.64
2023-11-24T01:52:41.596Z,50.20
2023-11-24T01:53:41.559Z,50.74
2023-11-24T01:54:41.584Z,50.00
2023-11-24T01:55:41.553Z,51.14
2023-11-24T01:56:41.548Z,50.76
2023-11-24T01:57:41.584Z,52.06
2023-11-24T01:58:41.529Z,51.49
2023-11-24T01:59:41.551Z,50.70
2023-11-24T02:00:41.517Z,50.77
2023-11-24T02:01:41.580Z,50.53
2023-11-24T02:02:41.615Z,50.87
2023-11-24T02:03:41.543Z,50.98
2023-11-24T02:04:41.474Z,51.82
2023-11-24T02:05:41.499Z,51.98
2023-11-24T02:06:41.485Z,52.98
2023-11-24T02:07:41.455Z,50.30
2023-11-24T02:08:41.452Z,52.80
2023-11-24T02:09:41.455Z,51.08
2023-11-24T02:10:41.450Z,51.27
2023-11-24T02:11:41.405Z,52.40
2023-11-24T02:12:41.466Z,52.13
2023-11-24T02:13:41.400Z,51.42
2023-11-24T02:14:41.400Z,52.73
2023-11-24T02:15:41.401Z,50.22
2023-11-24T02:16:41.399Z,50.13
2023-11-24T02:17:41.394Z,51.92
2023-11-24T02:18:41.368Z,51.93
2023-11-24T02:19:41.359Z,50.24
2023-11-24T02:20:41.347Z,51.12
2023-11-24T02:21:41.355Z,51.26
2023-11-24T02:22:41.338Z,52.59
2023-11-24T02:23:41.310Z,50.48
2023-11-24T02:24:41.334Z,50.17
2023-11-24T02:25:41.298Z,51.34
2023-11-24T02:26:41.298Z,50.64
2023-11-24T02:27:41.296Z,51.40
2023-11-24T02:28:41.279Z,50.34
2023-11-24T02:29:41.248Z,51.57
2023-11-24T02:30:41.350Z,50.95
2023-11-24T02:31:41.304Z,54.03
2023-11-24T02:32:41.330Z,51.71
2023-11-24T02:33:41.226Z,52.07
2023-11-24T02:34:41.234Z,50.94
2023-11-24T02:35:41.203Z,51.58
2023-11-24T02:36:41.222Z,52.12
2023-11-24T02:37:41.210Z,51.52
2023-11-24T02:38:41.185Z,51.60
2023-11-24T02:39:41.180Z,50.00
2023-11-24T02:40:41.810Z,51.86
2023-11-24T02:41:41.141Z,51.41
2023-11-24T02:42:41.153Z,50.91
2023-11-24T02:43:41.145Z,51.46
2023-11-24T02:44:41.122Z,51.70
2023-11-24T02:45:41.158Z,51.13
2023-11-24T02:46:41.101Z,52.71
2023-11-24T02:47:41.125Z,50.69
2023-11-24T02:48:41.133Z,51.64
2023-11-24T02:49:41.092Z,52.25
2023-11-24T02:50:41.093Z,50.42
2023-11-24T02:51:41.108Z,51.49
2023-11-24T02:52:41.067Z,50.92
2023-11-24T02:53:41.053Z,51.49
2023-11-24T02:54:41.076Z,51.34
2023-11-24T02:55:41.029Z,52.77
2023-11-24T02:56:41.050Z,50.83
2023-11-24T02:57:41.047Z,51.83
2023-11-24T02:58:41.019Z,51.99
2023-11-24T02:59:40.997Z,52.03
2023-11-24T03:00:41.044Z,51.08
2023-11-24T03:01:41.705Z,52.04
2023-11-24T03:02:41.021Z,51.91
2023-11-24T03:03:41.014Z,52.33
2023-11-24T03:04:40.977Z,51.73
2023-11-24T03:05:40.944Z,52.50
2023-11-24T03:06:41.011Z,51.59
2023-11-24T03:07:40.935Z,52.77
2023-11-24T03:08:40.919Z,51.03
2023-11-24T03:09:40.932Z,52.49
2023-11-24T03:10:40.904Z,50.26
2023-11-24T03:11:40.890Z,52.57
2023-11-24T03:12:40.888Z,51.00
2023-11-24T03:13:40.888Z,52.11
2023-11-24T03:14:40.865Z,53.11
2023-11-24T03:15:40.904Z,52.47
2023-11-24T03:16:41.417Z,50.67
2023-11-24T03:17:40.860Z,51.90
2023-11-24T03:18:40.856Z,52.31
2023-11-24T03:19:40.818Z,51.21
2023-11-24T03:20:40.821Z,52.11
2023-11-24T03:21:40.825Z,51.96
2023-11-24T03:22:40.817Z,52.33
2023-11-24T03:23:40.788Z,50.89
2023-11-24T03:24:40.790Z,51.42
2023-11-24T03:25:40.763Z,51.82
2023-11-24T03:26:40.816Z,52.25
2023-11-24T03:27:40.759Z,51.87
2023-11-24T03:28:40.758Z,52.82
2023-11-24T03:29:40.767Z,52.21
2023-11-24T03:30:40.780Z,52.07
2023-11-24T03:31:40.715Z,51.94
2023-11-24T03:32:40.775Z,52.03
2023-11-24T03:33:40.777Z,51.84
2023-11-24T03:34:40.752Z,50.75
2023-11-24T03:35:40.691Z,51.68
2023-11-24T03:36:40.707Z,52.63
2023-11-24T03:37:40.676Z,51.22
2023-11-24T03:38:40.662Z,51.03
2023-11-24T03:39:40.662Z,52.30
2023-11-24T03:40:41.357Z,52.44
2023-11-24T03:41:40.647Z,51.69
2023-11-24T03:42:40.752Z,52.00
2023-11-24T03:43:40.606Z,53.03
2023-11-24T03:44:40.611Z,51.69
2023-11-24T03:45:40.630Z,51.47
2023-11-24T03:46:40.632Z,51.64
2023-11-24T03:47:40.823Z,51.35
2023-11-24T03:48:40.616Z,52.21
2023-11-24T03:49:40.548Z,52.39
2023-11-24T03:50:40.574Z,52.09
2023-11-24T03:51:40.573Z,52.68
2023-11-24T03:52:40.530Z,52.08
2023-11-24T03:53:40.540Z,52.46
2023-11-24T03:54:40.548Z,50.47
2023-11-24T03:55:40.498Z,52.48
2023-11-24T03:56:40.502Z,52.36
2023-11-24T03:57:40.513Z,52.21
2023-11-24T03:58:40.490Z,51.72
2023-11-24T03:59:40.498Z,51.17
2023-11-24T04:00:40.584Z,50.99
2023-11-24T04:01:40.630Z,52.19
2023-11-24T04:02:40.543Z,52.45
2023-11-24T04:03:40.529Z,50.54
2023-11-24T04:04:40.451Z,51.02
2023-11-24T04:05:40.423Z,52.36
2023-11-24T04:06:40.494Z,52.68
2023-11-24T04:07:40.449Z,52.46
2023-11-24T04:08:40.407Z,52.31
2023-11-24T04:09:40.425Z,50.65
2023-11-24T04:10:40.377Z,52.52
2023-11-24T04:11:40.397Z,52.63
2023-11-24T04:12:40.403Z,53.38
2023-11-24T04:13:40.367Z,51.85
2023-11-24T04:14:40.347Z,52.06
2023-11-24T04:15:40.453Z,52.41
2023-11-24T04:16:40.423Z,50.44
2023-11-24T04:17:40.375Z,51.29
2023-11-24T04:18:40.367Z,52.20
2023-11-24T04:19:40.302Z,51.13
2023-11-24T04:20:40.308Z,51.98
2023-11-24T04:21:40.322Z,51.97
2023-11-24T04:22:40.284Z,52.13
2023-11-24T04:23:40.373Z,52.36
2023-11-24T04:24:40.349Z,52.29
2023-11-24T04:25:40.246Z,52.59
2023-11-24T04:26:40.256Z,52.04
2023-11-24T04:27:40.281Z,52.26
2023-11-24T04:28:40.234Z,53.39
2023-11-24T04:29:40.242Z,52.25
2023-11-24T04:30:40.322Z,51.60
2023-11-24T04:31:40.208Z,52.13
2023-11-24T04:32:40.219Z,51.85
2023-11-24T04:33:40.236Z,51.36
2023-11-24T04:34:40.280Z,52.71
2023-11-24T04:35:40.179Z,51.14
2023-11-24T04:36:40.239Z,53.27
2023-11-24T04:37:40.150Z,52.05
2023-11-24T04:38:40.164Z,51.89
2023-11-24T04:39:40.206Z,52.20
2023-11-24T04:40:40.138Z,50.91
2023-11-24T04:41:40.112Z,50.80
2023-11-24T04:42:40.259Z,51.51
2023-11-24T04:43:40.144Z,50.85
2023-11-24T04:44:40.110Z,52.72
2023-11-24T04:45:40.183Z,51.33
2023-11-24T04:46:40.200Z,51.39
2023-11-24T04:47:40.192Z,51.85
2023-11-24T04:48:40.075Z,51.64
2023-11-24T04:49:40.059Z,52.95
2023-11-24T04:50:40.039Z,51.86
2023-11-24T04:51:40.073Z,51.33
2023-11-24T04:52:40.026Z,51.00
2023-11-24T04:53:41.645Z,51.14
2023-11-24T04:54:40.055Z,53.67
2023-11-24T04:55:40.012Z,51.21
2023-11-24T04:56:39.986Z,52.38
2023-11-24T04:57:40.046Z,52.45
2023-11-24T04:58:39.975Z,52.67
2023-11-24T04:59:39.967Z,51.67
2023-11-24T05:00:40.009Z,51.90
2023-11-24T05:01:39.997Z,53.28
2023-11-24T05:02:40.037Z,51.30
2023-11-24T05:03:40.028Z,51.31
2023-11-24T05:04:40.008Z,51.88
2023-11-24T05:05:39.929Z,50.48
2023-11-24T05:06:39.955Z,51.01
2023-11-24T05:07:39.911Z,51.50
2023-11-24T05:08:39.888Z,53.10
2023-11-24T05:09:39.972Z,52.06
2023-11-24T05:10:39.880Z,51.52
2023-11-24T05:11:39.878Z,50.65
2023-11-24T05:12:39.902Z,52.90
2023-11-24T05:13:39.851Z,52.47
2023-11-24T05:14:39.837Z,51.58
2023-11-24T05:15:39.847Z,51.81
2023-11-24T05:16:39.858Z,52.19
2023-11-24T05:17:39.991Z,52.52
2023-11-24T05:18:39.851Z,50.00
2023-11-24T05:19:39.824Z,51.57
2023-11-24T05:20:39.801Z,50.85
2023-11-24T05:21:53.827Z,51.48
2023-11-24T05:22:39.773Z,51.75
2023-11-24T05:23:39.828Z,52.28
2023-11-24T05:24:39.796Z,53.14
2023-11-24T05:25:39.750Z,53.25
2023-11-24T05:26:39.752Z,54.70
2023-11-24T05:27:39.766Z,54.63
2023-11-24T05:28:39.711Z,52.91
2023-11-24T05:29:39.719Z,53.43
2023-11-24T05:30:39.762Z,53.43
2023-11-24T05:31:39.716Z,52.85
2023-11-24T05:32:39.770Z,51.32
2023-11-24T05:33:39.726Z,52.67
2023-11-24T05:34:39.669Z,50.77
2023-11-24T05:35:39.657Z,52.25
2023-11-24T05:36:39.673Z,51.31
2023-11-24T05:37:39.657Z,51.40
2023-11-24T05:38:39.655Z,51.41
2023-11-24T05:39:39.729Z,51.11
2023-11-24T05:40:39.623Z,52.96
2023-11-24T05:41:39.620Z,50.68
2023-11-24T05:42:39.641Z,50.66
2023-11-24T05:43:39.602Z,50.90
2023-11-24T05:44:39.579Z,50.65
2023-11-24T05:45:39.669Z,51.73
2023-11-24T05:46:39.588Z,52.29
2023-11-24T05:47:39.583Z,51.29
2023-11-24T05:48:39.596Z,50.33
2023-11-24T05:49:39.544Z,50.32
2023-11-24T05:50:39.537Z,51.30
2023-11-24T05:51:40.077Z,52.39
2023-11-24T05:52:39.548Z,51.90
2023-11-24T05:53:39.504Z,50.83
2023-11-24T05:54:39.528Z,50.33
2023-11-24T05:55:39.500Z,51.36
2023-11-24T05:56:39.491Z,52.32
2023-11-24T05:57:39.505Z,50.77
2023-11-24T05:58:39.480Z,50.44
2023-11-24T05:59:39.457Z,50.89
2023-11-24T06:00:39.480Z,50.44
2023-11-24T06:01:39.464Z,51.35
2023-11-24T06:02:39.438Z,50.33
2023-11-24T06:03:39.495Z,51.14
2023-11-24T06:04:39.688Z,52.67
2023-11-24T06:05:39.489Z,51.40
2023-11-24T06:06:39.424Z,50.12
2023-11-24T06:07:39.411Z,52.10
2023-11-24T06:08:39.377Z,51.04
2023-11-24T06:09:39.407Z,53.17
2023-11-24T06:10:39.376Z,51.92
2023-11-24T06:11:39.365Z,51.68
2023-11-24T06:12:39.395Z,51.48
2023-11-24T06:13:39.344Z,52.62
2023-11-24T06:14:39.349Z,51.46
2023-11-24T06:15:39.349Z,52.83
2023-11-24T06:16:39.366Z,52.47
2023-11-24T06:17:39.347Z,53.41
2023-11-24T06:18:39.344Z,51.37
2023-11-24T06:19:39.308Z,51.70
2023-11-24T06:20:39.302Z,52.06
2023-11-24T06:21:39.338Z,52.34
2023-11-24T06:22:39.267Z,51.86
2023-11-24T06:23:39.262Z,52.94
2023-11-24T06:24:39.260Z,51.86
2023-11-24T06:25:39.252Z,50.68
2023-11-24T06:26:39.222Z,52.07
2023-11-24T06:27:39.286Z,52.36
2023-11-24T06:28:39.203Z,51.99
2023-11-24T06:29:39.210Z,53.16
2023-11-24T06:30:39.234Z,52.11
2023-11-24T06:31:39.191Z,52.76
2023-11-24T06:32:39.209Z,51.96
2023-11-24T06:33:39.250Z,52.35
2023-11-24T06:34:39.219Z,51.24
2023-11-24T06:35:39.171Z,103.60
2023-11-24T06:36:39.184Z,112.02
2023-11-24T06:37:39.136Z,96.33
2023-11-24T06:38:39.126Z,84.75
2023-11-24T06:39:39.953Z,79.99
2023-11-24T06:40:39.116Z,79.44
2023-11-24T06:41:39.131Z,80.18
2023-11-24T06:42:39.128Z,87.66
2023-11-24T06:43:39.106Z,89.60
2023-11-24T06:44:39.072Z,88.85
2023-11-24T06:45:39.097Z,90.11
2023-11-24T06:46:39.074Z,93.85
2023-11-24T06:47:39.098Z,95.40
2023-11-24T06:48:39.083Z,94.98
2023-11-24T06:49:39.039Z,96.16
2023-11-24T06:50:39.023Z,97.72
2023-11-24T06:51:39.161Z,96.75
2023-11-24T06:52:39.023Z,101.48
2023-11-24T06:53:39.004Z,102.08
2023-11-24T06:54:39.028Z,104.87
2023-11-24T06:55:38.982Z,109.68
2023-11-24T06:56:38.989Z,111.35
2023-11-24T06:57:39.040Z,110.39
2023-11-24T06:58:38.990Z,115.52
2023-11-24T06:59:38.989Z,117.22
2023-11-24T07:00:39.066Z,113.83
2023-11-24T07:01:39.037Z,121.43
2023-11-24T07:02:38.937Z,118.34
2023-11-24T07:03:38.989Z,115.80
2023-11-24T07:04:38.965Z,115.54
2023-11-24T07:05:38.908Z,111.94
2023-11-24T07:06:38.934Z,105.77
2023-11-24T07:07:38.926Z,99.28
2023-11-24T07:08:38.891Z,88.94
2023-11-24T07:09:38.872Z,88.68
2023-11-24T07:10:38.908Z,82.75
2023-11-24T07:11:38.878Z,80.36
2023-11-24T07:12:38.873Z,75.63
2023-11-24T07:13:38.858Z,72.69
2023-11-24T07:14:38.817Z,67.08
2023-11-24T07:15:38.881Z,62.49
2023-11-24T07:16:38.937Z,54.67
2023-11-24T07:17:38.811Z,52.73
2023-11-24T07:18:38.934Z,50.47
2023-11-24T07:19:38.851Z,50.09
2023-11-24T07:20:38.765Z,50.69
2023-11-24T07:21:38.776Z,49.63
2023-11-24T07:22:38.743Z,50.00
2023-11-24T07:23:38.753Z,52.59
2023-11-24T07:24:38.766Z,50.10
2023-11-24T07:25:38.734Z,48.86
2023-11-24T07:26:38.778Z,49.05
2023-11-24T07:27:38.738Z,50.00
2023-11-24T07:28:38.716Z,50.74
2023-11-24T07:29:38.788Z,50.00
2023-11-24T07:30:38.699Z,51.34
2023-11-24T07:31:38.668Z,52.42
2023-11-24T07:32:38.707Z,54.59
2023-11-24T07:33:38.667Z,56.80
2023-11-24T07:34:38.823Z,58.10
2023-11-24T07:35:38.644Z,61.06
2023-11-24T07:36:38.672Z,64.66
2023-11-24T07:37:38.645Z,68.13
2023-11-24T07:38:38.606Z,71.07
2023-11-24T07:39:38.649Z,74.21
2023-11-24T07:40:38.594Z,77.23
2023-11-24T07:41:38.598Z,79.50
2023-11-24T07:42:38.706Z,81.98
2023-11-24T07:43:38.577Z,85.38
2023-11-24T07:44:38.553Z,86.61
2023-11-24T07:45:38.616Z,88.00
2023-11-24T07:46:38.630Z,90.92
2023-11-24T07:47:38.560Z,93.94
2023-11-24T07:48:38.555Z,97.44
2023-11-24T07:49:38.515Z,101.56
2023-11-24T07:50:38.534Z,103.95
2023-11-24T07:51:38.545Z,105.08
2023-11-24T07:52:38.508Z,107.72
2023-11-24T07:53:38.481Z,111.15
2023-11-24T07:54:38.500Z,113.02
2023-11-24T07:55:38.475Z,122.15
2023-11-24T07:56:38.461Z,123.19
2023-11-24T07:57:38.509Z,120.41
2023-11-24T07:58:38.442Z,114.94
2023-11-24T07:59:38.447Z,113.40
2023-11-24T08:00:38.438Z,111.88
2023-11-24T08:01:38.528Z,110.13
2023-11-24T08:02:38.563Z,111.71
2023-11-24T08:03:38.540Z,112.15
2023-11-24T08:04:38.477Z,111.65
2023-11-24T08:05:38.389Z,111.91
2023-11-24T08:06:38.387Z,115.30
2023-11-24T08:07:38.358Z,118.06
2023-11-24T08:08:38.381Z,119.48
2023-11-24T08:09:38.457Z,120.12
2023-11-24T08:10:38.960Z,123.00
2023-11-24T08:11:38.332Z,123.38
2023-11-24T08:12:38.442Z,126.80
2023-11-24T08:13:38.326Z,129.43
2023-11-24T08:14:38.302Z,127.61
2023-11-24T08:15:38.319Z,130.85
2023-11-24T08:16:38.394Z,131.82
2023-11-24T08:17:38.323Z,135.35
2023-11-24T08:18:38.280Z,137.24
2023-11-24T08:19:38.266Z,138.08
2023-11-24T08:20:38.275Z,141.85
2023-11-24T08:21:38.361Z,143.47
2023-11-24T08:22:38.228Z,145.17
2023-11-24T08:23:38.232Z,146.45
2023-11-24T08:24:38.226Z,149.77
2023-11-24T08:25:38.228Z,169.30
2023-11-24T08:26:38.199Z,174.15
2023-11-24T08:27:38.242Z,179.19
2023-11-24T08:28:38.199Z,176.71
2023-11-24T08:29:38.180Z,173.51
2023-11-24T08:30:38.207Z,169.47
2023-11-24T08:31:38.169Z,166.77
2023-11-24T08:32:38.204Z,163.97
2023-11-24T08:33:38.172Z,162.16
2023-11-24T08:34:38.185Z,158.08
2023-11-24T08:35:38.156Z,156.40
2023-11-24T08:36:38.153Z,155.18
2023-11-24T08:37:38.129Z,153.34
2023-11-24T08:38:38.094Z,150.86
2023-11-24T08:39:38.111Z,149.54
2023-11-24T08:40:38.075Z,149.45
2023-11-24T08:41:40.680Z,150.28
2023-11-24T08:42:38.154Z,151.37
2023-11-24T08:43:38.084Z,150.78
2023-11-24T08:44:40.372Z,150.53
2023-11-24T08:54:04.824Z,50.00
2023-11-24T08:55:05.480Z,50.00
2023-11-24T08:56:04.824Z,50.00
2023-11-24T08:57:04.814Z,50.00
2023-11-24T08:58:04.853Z,50.00
2023-11-24T08:59:04.786Z,50.00
2023-11-24T09:00:04.796Z,49.91
2023-11-24T09:01:04.816Z,50.00
2023-11-24T09:02:04.854Z,51.14
2023-11-24T09:03:04.744Z,50.57
2023-11-24T09:04:04.832Z,50.00
2023-11-24T09:05:04.835Z,51.25
2023-11-24T09:06:04.739Z,54.39
2023-11-24T09:07:04.805Z,55.61
2023-11-24T09:08:04.717Z,55.86
2023-11-24T09:09:04.717Z,55.78
2023-11-24T09:10:04.788Z,55.51
2023-11-24T09:11:04.694Z,54.29
2023-11-24T09:12:04.672Z,55.06
2023-11-24T09:13:04.702Z,56.20
2023-11-24T09:14:04.654Z,56.09
2023-11-24T09:15:04.643Z,56.12
2023-11-24T09:16:04.686Z,56.23
2023-11-24T09:17:04.686Z,55.22
2023-11-24T09:18:04.678Z,57.63
2023-11-24T09:19:04.648Z,59.08
2023-11-24T09:20:04.628Z,57.66
2023-11-24T09:21:04.595Z,62.95
2023-11-24T09:22:04.620Z,63.41
2023-11-24T09:23:04.571Z,57.27
2023-11-24T09:24:04.595Z,56.31
2023-11-24T09:25:04.572Z,60.07
2023-11-24T09:26:04.561Z,61.73
2023-11-24T09:27:04.562Z,62.58
2023-11-24T09:28:04.562Z,63.69
2023-11-24T09:29:04.513Z,65.06
2023-11-24T09:30:04.599Z,68.42
2023-11-24T09:31:09.708Z,70.72
2023-11-24T09:32:04.506Z,70.80
2023-11-24T09:33:04.494Z,71.37
2023-11-24T09:34:04.656Z,72.14
2023-11-24T09:35:04.538Z,74.79
2023-11-24T09:36:04.480Z,75.28
2023-11-24T09:37:04.492Z,75.18
2023-11-24T09:38:04.453Z,76.44
2023-11-24T09:39:04.446Z,76.99
2023-11-24T09:40:04.547Z,73.73
2023-11-24T09:41:04.499Z,73.18
2023-11-24T09:42:04.419Z,78.53
2023-11-24T09:43:04.449Z,75.19
2023-11-24T09:44:04.400Z,76.07
2023-11-24T09:45:04.386Z,77.38
2023-11-24T09:46:04.476Z,75.86
2023-11-24T09:47:04.452Z,76.92
2023-11-24T09:48:04.394Z,76.24
2023-11-24T09:49:04.370Z,75.01
2023-11-24T09:50:04.406Z,76.84
2023-11-24T09:51:04.349Z,77.66
2023-11-24T09:52:04.365Z,75.26
2023-11-24T09:53:04.305Z,78.00
2023-11-24T09:54:04.309Z,78.60
2023-11-24T09:55:04.356Z,77.96
2023-11-24T09:56:04.534Z,74.40
2023-11-24T09:57:04.297Z,76.24
2023-11-24T09:58:04.302Z,78.20
2023-11-24T09:59:04.462Z,78.54
2023-11-24T10:00:04.256Z,81.82
2023-11-24T10:01:04.293Z,82.91
2023-11-24T10:02:06.331Z,82.93
2023-11-24T10:03:04.271Z,86.00
2023-11-24T10:04:04.313Z,85.65
2023-11-24T10:05:04.215Z,89.02
2023-11-24T10:06:04.199Z,89.22
2023-11-24T10:07:04.223Z,89.94
2023-11-24T10:08:04.179Z,91.07
2023-11-24T10:09:04.185Z,90.40
2023-11-24T10:10:04.260Z,90.23
2023-11-24T10:11:04.154Z,91.11
2023-11-24T10:12:04.137Z,91.11
2023-11-24T10:13:04.869Z,87.91
2023-11-24T10:14:04.146Z,87.81
2023-11-24T10:15:04.120Z,89.87
2023-11-24T10:16:04.169Z,89.40
2023-11-24T10:17:04.104Z,91.26
2023-11-24T10:18:04.137Z,91.84
2023-11-24T10:19:04.115Z,93.01
2023-11-24T10:20:04.088Z,92.57
2023-11-24T10:21:04.063Z,92.33
2023-11-24T10:22:04.151Z,93.34
2023-11-24T10:23:04.041Z,95.41
2023-11-24T10:24:04.057Z,92.50
2023-11-24T10:25:04.098Z,96.83
2023-11-24T10:26:04.022Z,101.67
2023-11-24T10:27:04.000Z,103.09
2023-11-24T10:28:04.048Z,103.38
2023-11-24T10:29:03.994Z,102.23
2023-11-24T10:30:03.988Z,101.63
2023-11-24T10:31:04.028Z,119.26
2023-11-24T10:32:03.971Z,133.25
2023-11-24T10:33:04.073Z,130.25
2023-11-24T10:34:04.064Z,127.43
2023-11-24T10:35:04.096Z,123.13
2023-11-24T10:36:03.930Z,118.43
2023-11-24T10:37:04.011Z,114.19
2023-11-24T10:38:04.011Z,113.62
2023-11-24T10:39:03.981Z,111.27
2023-11-24T10:40:03.954Z,109.66
2023-11-24T10:41:05.283Z,107.77
2023-11-24T10:42:03.869Z,107.35
2023-11-24T10:43:03.976Z,106.94
2023-11-24T10:44:03.875Z,106.97
2023-11-24T10:45:03.858Z,107.59
2023-11-24T10:46:03.939Z,106.02
2023-11-24T10:47:03.850Z,101.09
2023-11-24T10:48:03.853Z,102.39
2023-11-24T10:49:03.833Z,99.93
2023-11-24T10:50:03.808Z,98.53
2023-11-24T10:51:03.789Z,89.62
2023-11-24T10:52:03.835Z,78.44
2023-11-24T10:53:03.846Z,73.67
2023-11-24T10:54:03.820Z,72.99
2023-11-24T10:55:03.768Z,62.76
2023-11-24T10:56:03.766Z,49.75
2023-11-24T10:57:03.750Z,48.43
2023-11-24T10:58:03.775Z,50.00
2023-11-24T10:59:03.727Z,50.00
2023-11-24T11:00:03.714Z,50.00
2023-11-24T11:01:04.094Z,50.53
2023-11-24T11:02:03.981Z,50.00
2023-11-24T11:03:03.702Z,50.63
2023-11-24T11:04:03.701Z,50.68
2023-11-24T11:05:03.678Z,51.89
2023-11-24T11:06:03.663Z,50.66
2023-11-24T11:07:03.688Z,50.66
2023-11-24T11:08:03.639Z,50.00
2023-11-24T11:09:03.629Z,51.79
2023-11-24T11:10:03.994Z,48.51
2023-11-24T11:11:03.676Z,51.54
2023-11-24T11:12:03.621Z,50.27
2023-11-24T11:13:03.604Z,50.03
2023-11-24T11:14:05.449Z,50.61
2023-11-24T11:15:03.712Z,52.13
2023-11-24T11:16:03.738Z,50.33
2023-11-24T11:17:03.748Z,51.24
2023-11-24T11:18:03.716Z,50.16
2023-11-24T11:19:03.810Z,51.13
2023-11-24T11:20:05.753Z,50.00
2023-11-24T11:21:03.691Z,50.71
2023-11-24T11:22:03.692Z,52.91
2023-11-24T11:23:03.656Z,55.02
2023-11-24T11:24:03.625Z,52.81
2023-11-24T11:25:03.645Z,50.72
2023-11-24T11:26:06.083Z,56.18
2023-11-24T11:27:03.747Z,55.23
2023-11-24T11:28:03.850Z,56.23
2023-11-24T11:29:03.703Z,53.87
2023-11-24T11:30:03.716Z,53.96
2023-11-24T11:31:03.751Z,53.63
2023-11-24T11:32:03.739Z,52.67
2023-11-24T11:33:03.741Z,53.55
2023-11-24T11:34:03.795Z,51.12
2023-11-24T11:35:03.698Z,51.79
2023-11-24T11:36:03.653Z,52.76
2023-11-24T11:37:03.694Z,51.66
2023-11-24T11:38:03.645Z,53.62
2023-11-24T11:39:03.624Z,51.96
2023-11-24T11:40:03.670Z,53.49
2023-11-24T11:41:03.631Z,51.41
2023-11-24T11:42:03.686Z,54.49
2023-11-24T11:43:03.614Z,54.26
2023-11-24T11:44:03.599Z,52.04
2023-11-24T11:45:03.713Z,55.50
2023-11-24T11:46:03.741Z,54.49
2023-11-24T11:47:03.722Z,54.34
2023-11-24T11:48:03.617Z,53.45
2023-11-24T11:49:03.600Z,56.77
2023-11-24T11:50:03.581Z,53.80
2023-11-24T11:51:03.576Z,53.14
2023-11-24T11:52:03.576Z,55.86
2023-11-24T11:53:03.617Z,55.49
2023-11-24T11:54:03.514Z,55.03
2023-11-24T11:55:03.570Z,55.52
2023-11-24T11:56:03.483Z,53.99
2023-11-24T11:57:03.481Z,52.08
2023-11-24T11:58:03.568Z,52.70
2023-11-24T11:59:03.464Z,54.72
2023-11-24T12:00:03.459Z,59.36
2023-11-24T12:01:03.484Z,58.74
2023-11-24T12:02:03.530Z,60.09
2023-11-24T12:03:03.490Z,58.58
2023-11-24T12:04:03.533Z,62.79
2023-11-24T12:05:03.398Z,60.07
2023-11-24T12:06:03.404Z,62.21
2023-11-24T12:07:03.460Z,61.67
2023-11-24T12:08:03.394Z,63.47
2023-11-24T12:09:03.355Z,65.35
2023-11-24T12:10:03.430Z,63.21
2023-11-24T12:11:03.346Z,63.86
2023-11-24T12:12:03.349Z,64.33
2023-11-24T12:13:03.417Z,64.08
2023-11-24T12:14:03.392Z,67.31
2023-11-24T12:15:03.330Z,66.95
2023-11-24T12:16:03.368Z,71.50
2023-11-24T12:17:03.418Z,72.13
2023-11-24T12:18:03.295Z,71.15
2023-11-24T12:19:03.290Z,75.39
2023-11-24T12:20:03.296Z,78.42
2023-11-24T12:21:03.300Z,81.61
2023-11-24T12:22:03.312Z,85.09
2023-11-24T12:23:03.268Z,85.21
2023-11-24T12:25:03.308Z,88.02
2023-11-24T12:26:03.218Z,91.17
2023-11-24T12:27:03.213Z,91.79
2023-11-24T12:28:03.303Z,94.21
2023-11-24T12:29:03.177Z,97.83
2023-11-24T12:30:03.233Z,95.75
2023-11-24T12:31:03.281Z,101.36
2023-11-24T12:32:03.173Z,99.57
2023-11-24T12:33:03.229Z,102.56
2023-11-24T12:34:03.180Z,102.20
2023-11-24T12:35:03.152Z,104.08
2023-11-24T12:36:03.198Z,105.25
2023-11-24T12:37:03.130Z,108.15
2023-11-24T12:38:03.109Z,110.70
2023-11-24T12:39:03.089Z,111.29
2023-11-24T12:40:03.136Z,115.15
2023-11-24T12:41:03.094Z,113.94
2023-11-24T12:42:03.100Z,117.24
2023-11-24T12:43:03.127Z,116.71
2023-11-24T12:44:03.067Z,120.35
2023-11-24T12:45:03.053Z,119.51
2023-11-24T12:46:03.202Z,119.76
2023-11-24T12:47:03.055Z,121.82
2023-11-24T12:48:03.066Z,124.64
2023-11-24T12:49:03.113Z,122.69
2023-11-24T12:50:03.167Z,124.67
2023-11-24T12:51:03.026Z,123.05
2023-11-24T12:52:03.010Z,125.78
2023-11-24T12:53:02.989Z,123.44
2023-11-24T12:54:02.977Z,125.51
2023-11-24T12:55:03.233Z,124.66
2023-11-24T12:56:02.966Z,126.06
2023-11-24T12:57:02.956Z,125.40
2023-11-24T12:58:02.963Z,124.60